Time;durP1;ratioP1;P1;durP2;ratioP2;P2;SDS_P1;SDS_P2;PMS_P1;PMS_P2;Temp;Humidity;BMP_temperature;BMP_pressure;BME280_temperature;BME280_humidity;BME280_pressure;Samples;Min_cycle;Max_cycle;Signal;HPM_P1;HPM_P2
2022/06/13 00:00:31;;;;;;;3.80;1.67;;;21.40;61.40;;;;;;5052954;28;20025;-69
2022/06/13 00:02:57;;;;;;;4.25;2.00;;;21.40;61.40;;;;;;5053034;28;20067;-69
2022/06/13 00:05:23;;;;;;;6.07;1.95;;;21.40;61.50;;;;;;5054471;28;20017;-70
2022/06/13 00:07:49;;;;;;;3.78;2.10;;;21.40;61.60;;;;;;5052589;28;20035;-69
2022/06/13 00:10:14;;;;;;;4.72;1.88;;;21.30;61.50;;;;;;5054187;28;20032;-69
2022/06/13 00:12:41;;;;;;;3.78;2.00;;;21.30;61.50;;;;;;5052834;28;20509;-69
2022/06/13 00:15:07;;;;;;;4.82;1.90;;;21.30;61.50;;;;;;5054249;28;20078;-70
2022/06/13 00:17:33;;;;;;;7.15;2.15;;;21.30;61.50;;;;;;5052802;28;20036;-69
2022/06/13 00:19:58;;;;;;;4.57;1.67;;;21.30;61.60;;;;;;5053975;28;20029;-69
2022/06/13 00:22:24;;;;;;;6.95;1.80;;;21.30;61.60;;;;;;5053780;28;20033;-69
2022/06/13 00:24:49;;;;;;;5.38;1.90;;;21.30;61.70;;;;;;5053667;28;20446;-69
2022/06/13 00:27:15;;;;;;;4.53;1.60;;;21.30;61.60;;;;;;5052832;28;20021;-69
2022/06/13 00:29:42;;;;;;;4.00;1.60;;;21.30;61.70;;;;;;5043789;28;20029;-69
2022/06/13 00:32:07;;;;;;;5.22;1.85;;;21.30;61.70;;;;;;5033865;28;20018;-69
2022/06/13 00:34:33;;;;;;;5.60;1.90;;;21.30;61.70;;;;;;5032517;28;20030;-69
2022/06/13 00:36:59;;;;;;;6.63;1.88;;;21.30;61.80;;;;;;5045608;28;20029;-69
2022/06/13 00:39:24;;;;;;;6.68;2.28;;;21.30;61.80;;;;;;5052553;28;20094;-68
2022/06/13 00:41:50;;;;;;;7.18;1.67;;;21.30;61.80;;;;;;5053346;28;20086;-69
2022/06/13 00:44:30;;;;;;;3.92;2.00;;;21.30;61.90;;;;;;5052100;28;20048;-68
2022/06/13 00:46:56;;;;;;;5.53;2.08;;;21.30;62.10;;;;;;5052106;28;20083;-69
2022/06/13 00:49:39;;;;;;;5.53;1.98;;;21.30;62.00;;;;;;5053461;28;20033;-69
2022/06/13 00:52:13;;;;;;;6.93;1.83;;;21.30;62.00;;;;;;5036733;28;20020;-69
2022/06/13 00:54:40;;;;;;;6.07;1.90;;;21.30;62.00;;;;;;5036691;28;20029;-68
2022/06/13 00:57:06;;;;;;;4.45;1.30;;;21.30;62.10;;;;;;5052004;28;20060;-69
2022/06/13 00:59:32;;;;;;;5.28;1.85;;;21.30;62.10;;;;;;5052032;28;20064;-69
2022/06/13 01:01:58;;;;;;;7.50;2.13;;;21.30;62.00;;;;;;5035105;28;20099;-69
2022/06/13 01:04:23;;;;;;;5.00;1.95;;;21.40;62.10;;;;;;5052319;28;20025;-69
2022/06/13 01:06:49;;;;;;;6.13;1.80;;;21.30;62.10;;;;;;5052722;28;20100;-69
2022/06/13 01:09:16;;;;;;;11.73;2.28;;;21.30;62.10;;;;;;5035365;28;20105;-70
2022/06/13 01:11:51;;;;;;;5.55;1.70;;;21.40;62.20;;;;;;5051603;28;20024;-69
2022/06/13 01:14:26;;;;;;;6.20;1.50;;;21.30;62.20;;;;;;5018897;28;20399;-69
2022/06/13 01:17:33;;;;;;;5.07;2.10;;;21.30;62.10;;;;;;5052650;28;20112;-69
2022/06/13 01:20:21;;;;;;;3.50;1.70;;;21.30;62.20;;;;;;5052030;28;20090;-69
2022/06/13 01:22:50;;;;;;;6.38;1.60;;;21.30;62.20;;;;;;5051747;28;20036;-69
2022/06/13 01:25:40;;;;;;;5.47;2.45;;;21.30;63.20;;;;;;5052806;28;20403;-70
2022/06/13 01:28:24;;;;;;;4.65;1.80;;;21.30;62.20;;;;;;5052515;28;20056;-69
2022/06/13 01:31:02;;;;;;;3.33;1.50;;;21.30;62.20;;;;;;5032057;28;20033;-70
2022/06/13 01:33:53;;;;;;;4.13;1.77;;;21.30;62.20;;;;;;5032572;28;20031;-69
2022/06/13 01:36:29;;;;;;;5.40;1.92;;;21.30;62.20;;;;;;5041361;28;20045;-69
2022/06/13 01:39:32;;;;;;;4.00;1.50;;;21.30;62.20;;;;;;5051301;28;20021;-70
2022/06/13 01:42:31;;;;;;;5.60;2.08;;;21.30;62.20;;;;;;5052686;28;20025;-69
2022/06/13 01:45:15;;;;;;;5.47;1.83;;;21.30;62.20;;;;;;5052242;28;20053;-69
2022/06/13 01:47:59;;;;;;;5.22;1.67;;;21.30;62.20;;;;;;5051145;28;20083;-69
2022/06/13 01:50:34;;;;;;;4.63;1.52;;;21.30;62.20;;;;;;5052323;28;20023;-69
2022/06/13 01:53:12;;;;;;;4.10;1.80;;;21.30;62.20;;;;;;5052291;28;20025;-69
2022/06/13 01:55:43;;;;;;;4.95;1.92;;;21.30;62.30;;;;;;5051129;28;20100;-69
2022/06/13 01:58:23;;;;;;;3.80;1.80;;;21.30;62.30;;;;;;5052453;28;20577;-69
2022/06/13 02:00:51;;;;;;;3.42;1.73;;;21.30;62.30;;;;;;5052311;28;20009;-69
2022/06/13 02:03:27;;;;;;;5.68;1.70;;;21.30;62.30;;;;;;5051031;28;20120;-70
2022/06/13 02:05:55;;;;;;;4.25;1.88;;;21.40;62.40;;;;;;5052055;28;20021;-69
2022/06/13 02:08:29;;;;;;;3.10;1.80;;;21.30;62.30;;;;;;5051042;28;20029;-69
2022/06/13 02:11:34;;;;;;;4.28;1.70;;;21.30;62.30;;;;;;5050977;28;20021;-69
2022/06/13 02:14:21;;;;;;;5.78;1.70;;;21.40;62.40;;;;;;5051536;28;20018;-69
2022/06/13 02:16:46;;;;;;;4.90;2.00;;;21.30;62.40;;;;;;5055034;28;20100;-69
2022/06/13 02:19:17;;;;;;;4.07;1.50;;;21.30;62.50;;;;;;5056181;28;20107;-69
2022/06/13 02:21:44;;;;;;;3.60;1.58;;;21.30;62.50;;;;;;5038798;28;20059;-69
2022/06/13 02:24:14;;;;;;;3.85;1.90;;;21.30;62.60;;;;;;5038498;28;20025;-69
2022/06/13 02:26:40;;;;;;;5.85;1.58;;;21.30;62.60;;;;;;5038601;28;20047;-70
2022/06/13 02:29:27;;;;;;;3.42;1.75;;;21.30;62.60;;;;;;5033211;28;20026;-70
2022/06/13 02:31:56;;;;;;;5.07;1.98;;;21.30;62.70;;;;;;5034531;28;20025;-69
2022/06/13 02:34:34;;;;;;;3.80;1.40;;;21.30;62.70;;;;;;5034878;28;20021;-70
2022/06/13 02:37:25;;;;;;;5.43;1.55;;;21.30;62.80;;;;;;5046912;28;20060;-69
2022/06/13 02:39:50;;;;;;;3.95;1.80;;;21.30;62.90;;;;;;5051841;28;20127;-69
2022/06/13 02:42:24;;;;;;;2.35;1.38;;;21.30;62.90;;;;;;5055870;28;20064;-69
2022/06/13 02:44:55;;;;;;;4.70;2.13;;;21.30;62.90;;;;;;5054420;28;20049;-69
2022/06/13 02:47:25;;;;;;;8.65;1.60;;;21.30;62.90;;;;;;5038133;28;20017;-69
2022/06/13 02:50:19;;;;;;;3.92;1.70;;;21.30;63.00;;;;;;5054196;28;20025;-69
2022/06/13 02:52:49;;;;;;;4.32;1.75;;;21.30;63.00;;;;;;5055457;28;20075;-69
2022/06/13 02:55:15;;;;;;;4.22;1.75;;;21.30;62.90;;;;;;5054540;28;20021;-69
2022/06/13 02:57:53;;;;;;;6.20;1.65;;;21.30;62.90;;;;;;5054268;28;20091;-69
2022/06/13 03:00:37;;;;;;;3.78;1.60;;;21.30;62.90;;;;;;5054104;28;20021;-69
2022/06/13 03:03:27;;;;;;;7.22;2.10;;;21.30;62.90;;;;;;5055378;28;20104;-69
2022/06/13 03:06:09;;;;;;;3.10;1.70;;;21.30;62.90;;;;;;5055243;28;20111;-69
2022/06/13 03:09:09;;;;;;;8.38;1.98;;;21.30;62.90;;;;;;5037977;28;20025;-69
2022/06/13 03:12:06;;;;;;;4.10;1.65;;;21.30;62.90;;;;;;5053090;28;20025;-69
2022/06/13 03:14:50;;;;;;;5.95;1.70;;;21.30;62.90;;;;;;5029027;28;20048;-69
2022/06/13 03:17:24;;;;;;;4.80;1.60;;;21.30;62.90;;;;;;5036371;28;20029;-69
2022/06/13 03:19:52;;;;;;;3.63;1.52;;;21.30;62.90;;;;;;5052996;28;20123;-69
2022/06/13 03:22:30;;;;;;;4.68;1.90;;;21.30;62.90;;;;;;5052801;28;20037;-69
2022/06/13 03:25:03;;;;;;;2.63;1.30;;;21.30;62.90;;;;;;5052608;28;20096;-69
2022/06/13 03:27:34;;;;;;;2.70;1.60;;;21.30;62.90;;;;;;5052036;28;20037;-69
2022/06/13 03:30:11;;;;;;;4.25;1.77;;;21.30;62.90;;;;;;5023213;28;20021;-69
2022/06/13 03:32:40;;;;;;;5.82;1.80;;;21.30;62.90;;;;;;5017031;28;20064;-69
2022/06/13 03:35:10;;;;;;;7.05;1.92;;;21.30;62.90;;;;;;5016309;28;20033;-69
2022/06/13 03:37:39;;;;;;;6.28;1.80;;;21.30;62.90;;;;;;5033390;28;20067;-69
2022/06/13 03:40:14;;;;;;;6.38;1.80;;;21.30;62.90;;;;;;5019559;28;20036;-69
2022/06/13 03:43:18;;;;;;;4.13;1.70;;;21.30;62.90;;;;;;5035962;28;20083;-69
2022/06/13 03:45:45;;;;;;;2.92;1.63;;;21.30;62.90;;;;;;4954113;29;20055;-70
2022/06/13 03:48:28;;;;;;;3.65;1.65;;;21.30;62.90;;;;;;4954164;29;20039;-69
2022/06/13 03:51:00;;;;;;;4.97;1.80;;;21.30;62.90;;;;;;4938253;29;20042;-69
2022/06/13 03:53:41;;;;;;;4.32;1.48;;;21.30;62.90;;;;;;4923620;29;20111;-70
2022/06/13 03:56:16;;;;;;;3.20;1.40;;;21.30;63.00;;;;;;4922866;29;20023;-69
2022/06/13 03:58:50;;;;;;;3.80;1.83;;;21.30;63.10;;;;;;4938160;29;20504;-69
2022/06/13 04:01:54;;;;;;;4.13;1.67;;;21.30;63.10;;;;;;4923007;29;20024;-70
2022/06/13 04:04:24;;;;;;;3.35;1.58;;;21.30;63.20;;;;;;4937893;29;20035;-69
2022/06/13 04:06:50;;;;;;;3.13;1.40;;;21.20;63.10;;;;;;4922607;29;20028;-69
2022/06/13 04:09:33;;;;;;;3.60;1.60;;;21.20;63.10;;;;;;4922209;29;20128;-69
2022/06/13 04:12:17;;;;;;;5.70;1.80;;;21.30;63.20;;;;;;4939301;29;20020;-70
2022/06/13 04:14:46;;;;;;;2.05;1.50;;;21.20;63.20;;;;;;4953753;29;20054;-70
2022/06/13 04:17:26;;;;;;;3.30;1.52;;;21.20;63.20;;;;;;5017614;28;20038;-69
2022/06/13 04:20:20;;;;;;;3.25;1.67;;;21.20;63.20;;;;;;5034548;28;20040;-69
2022/06/13 04:23:21;;;;;;;4.35;2.00;;;21.20;63.20;;;;;;5032989;28;20075;-69
2022/06/13 04:26:02;;;;;;;3.03;1.70;;;21.20;63.20;;;;;;5033004;28;20029;-69
2022/06/13 04:28:54;;;;;;;3.67;1.58;;;21.20;63.40;;;;;;5017500;28;20036;-69
2022/06/13 04:31:19;;;;;;;4.37;1.60;;;21.20;63.40;;;;;;5033647;28;20037;-69
2022/06/13 04:33:50;;;;;;;3.40;1.42;;;21.20;63.40;;;;;;5032578;28;20022;-69
2022/06/13 04:36:16;;;;;;;4.40;1.77;;;21.20;63.50;;;;;;5022923;28;20024;-69
2022/06/13 04:38:44;;;;;;;3.78;1.58;;;21.20;63.50;;;;;;5035837;28;20158;-69
2022/06/13 04:41:10;;;;;;;2.58;1.40;;;21.20;63.50;;;;;;5036001;28;20025;-69
2022/06/13 04:43:38;;;;;;;3.95;1.40;;;21.20;63.60;;;;;;5035670;28;20052;-69
2022/06/13 04:46:31;;;;;;;6.72;1.70;;;21.20;63.60;;;;;;5051903;28;20045;-69
2022/06/13 04:48:58;;;;;;;5.60;1.50;;;21.20;63.60;;;;;;5052229;28;20025;-69
2022/06/13 04:51:26;;;;;;;4.15;1.40;;;21.20;63.70;;;;;;5052258;28;20029;-69
2022/06/13 04:54:01;;;;;;;3.13;1.45;;;21.20;63.70;;;;;;5035782;28;20096;-69
2022/06/13 04:56:27;;;;;;;5.25;1.25;;;21.20;63.70;;;;;;5052039;28;20087;-68
2022/06/13 04:58:53;;;;;;;3.28;1.30;;;21.20;63.80;;;;;;5035410;28;20550;-69
2022/06/13 05:01:27;;;;;;;4.40;1.35;;;21.20;63.80;;;;;;5035622;28;20111;-69
2022/06/13 05:03:53;;;;;;;5.10;1.75;;;21.20;63.80;;;;;;5052024;28;20029;-69
2022/06/13 05:06:25;;;;;;;6.57;1.50;;;21.20;63.80;;;;;;5035464;28;20029;-69
2022/06/13 05:08:57;;;;;;;4.60;1.67;;;21.20;63.90;;;;;;5044890;28;20029;-69
2022/06/13 05:11:28;;;;;;;3.65;1.30;;;21.20;63.90;;;;;;5037160;28;20071;-69
2022/06/13 05:13:56;;;;;;;3.60;1.67;;;21.20;64.00;;;;;;5032351;28;20057;-70
2022/06/13 05:16:44;;;;;;;2.42;1.45;;;21.20;64.00;;;;;;5034057;28;20040;-69
2022/06/13 05:19:31;;;;;;;3.05;1.50;;;21.20;63.90;;;;;;5028977;28;20074;-69
2022/06/13 05:22:13;;;;;;;3.13;1.30;;;21.20;63.70;;;;;;5051571;28;20033;-69
2022/06/13 05:25:08;;;;;;;4.87;1.83;;;21.20;63.70;;;;;;5036443;28;20036;-69
2022/06/13 05:27:34;;;;;;;5.30;1.50;;;21.20;63.50;;;;;;5050290;28;20531;-69
2022/06/13 05:30:00;;;;;;;2.58;1.20;;;21.20;63.30;;;;;;5038109;28;20052;-69
2022/06/13 05:32:27;;;;;;;1.70;1.30;;;21.10;63.20;;;;;;5030370;28;20040;-69
2022/06/13 05:34:54;;;;;;;4.72;1.60;;;21.10;63.00;;;;;;5014037;28;20451;-69
2022/06/13 05:37:19;;;;;;;2.38;1.30;;;21.20;62.90;;;;;;5028992;28;20052;-69
2022/06/13 05:39:45;;;;;;;3.83;1.50;;;21.20;62.80;;;;;;5017195;28;20071;-69
2022/06/13 05:42:12;;;;;;;8.15;1.50;;;21.10;62.70;;;;;;5017278;28;20518;-70
2022/06/13 05:44:39;;;;;;;4.63;1.40;;;21.10;62.80;;;;;;5017136;28;20045;-69
2022/06/13 05:47:07;;;;;;;5.93;1.80;;;21.10;62.60;;;;;;5033448;28;20429;-69
2022/06/13 05:49:33;;;;;;;3.42;1.52;;;21.10;62.70;;;;;;5033563;28;20025;-69
2022/06/13 05:51:59;;;;;;;2.83;1.40;;;21.10;62.70;;;;;;5033800;28;20111;-69
2022/06/13 05:54:24;;;;;;;6.13;1.60;;;21.10;62.50;;;;;;5049986;28;20104;-69
2022/06/13 05:56:50;;;;;;;3.88;1.63;;;21.10;62.60;;;;;;5050144;28;20033;-69
2022/06/13 05:59:15;;;;;;;5.22;1.90;;;21.10;62.50;;;;;;5050072;28;20040;-69
2022/06/13 06:01:41;;;;;;;2.33;1.30;;;21.10;62.50;;;;;;5050126;28;20452;-70
2022/06/13 06:04:07;;;;;;;1.75;1.30;;;21.10;62.50;;;;;;5042841;28;20112;-69
2022/06/13 06:06:33;;;;;;;3.10;1.40;;;21.10;62.50;;;;;;5031051;28;20045;-69
2022/06/13 06:08:59;;;;;;;5.05;1.38;;;21.10;62.40;;;;;;5031022;28;20590;-70
2022/06/13 06:11:27;;;;;;;3.20;1.52;;;21.10;62.00;;;;;;5031270;28;20018;-69
2022/06/13 06:13:53;;;;;;;3.85;1.60;;;21.10;61.80;;;;;;5031188;28;20029;-69
2022/06/13 06:16:20;;;;;;;5.30;2.03;;;21.00;61.50;;;;;;5032174;28;20108;-69
2022/06/13 06:18:46;;;;;;;5.40;1.75;;;21.00;60.80;;;;;;5031279;28;20032;-69
2022/06/13 06:21:12;;;;;;;5.22;2.15;;;21.00;60.30;;;;;;5030902;28;20033;-69
2022/06/13 06:23:37;;;;;;;5.10;1.70;;;20.90;60.20;;;;;;5030863;28;20056;-69
2022/06/13 06:26:04;;;;;;;6.40;1.90;;;20.90;60.50;;;;;;5030788;28;20033;-69
2022/06/13 06:28:30;;;;;;;6.97;1.70;;;20.90;60.40;;;;;;5021998;28;20067;-69
2022/06/13 06:30:57;;;;;;;4.88;1.58;;;20.90;60.10;;;;;;5048412;28;20021;-69
2022/06/13 06:33:23;;;;;;;6.22;1.88;;;20.90;60.10;;;;;;5049181;28;20095;-69
2022/06/13 06:35:50;;;;;;;4.00;1.70;;;20.90;60.00;;;;;;5047894;28;20021;-69
2022/06/13 06:38:16;;;;;;;5.82;1.55;;;20.90;60.10;;;;;;5029150;28;20499;-69
2022/06/13 06:40:41;;;;;;;2.92;1.60;;;20.90;60.20;;;;;;5029923;28;20024;-70
2022/06/13 06:43:07;;;;;;;11.85;1.95;;;20.90;60.40;;;;;;5031856;28;20033;-68
2022/06/13 06:45:33;;;;;;;15.75;2.75;;;20.90;60.90;;;;;;5031873;28;20053;-69
2022/06/13 06:47:59;;;;;;;10.40;2.13;;;20.90;60.80;;;;;;5030904;28;20032;-69
2022/06/13 06:50:28;;;;;;;17.63;2.88;;;20.90;60.90;;;;;;5029692;28;20082;-69
2022/06/13 06:52:54;;;;;;;18.25;3.42;;;20.90;61.00;;;;;;5030806;28;20021;-69
2022/06/13 07:00:50;;;;;;;10.43;2.80;;;20.80;61.10;;;;;;5031811;28;20075;-69
2022/06/13 07:03:16;;;;;;;9.43;2.67;;;20.80;61.00;;;;;;5034070;28;20033;-69
2022/06/13 07:05:42;;;;;;;11.02;2.42;;;20.80;61.00;;;;;;5034299;28;20183;-69
2022/06/13 07:08:08;;;;;;;12.88;2.97;;;20.80;61.00;;;;;;5033742;28;20030;-69
2022/06/13 07:10:33;;;;;;;14.43;2.70;;;20.80;61.00;;;;;;5034371;28;20013;-69
2022/06/13 07:12:59;;;;;;;9.25;2.40;;;20.80;61.00;;;;;;5043866;28;20017;-69
2022/06/13 07:15:25;;;;;;;13.50;2.75;;;20.80;60.90;;;;;;5047621;28;20029;-69
2022/06/13 07:17:50;;;;;;;9.57;2.17;;;20.80;61.00;;;;;;5035163;28;20025;-69
2022/06/13 07:20:16;;;;;;;12.23;2.88;;;20.70;60.70;;;;;;5045086;28;20025;-69
2022/06/13 07:22:49;;;;;;;13.90;2.78;;;20.70;60.80;;;;;;5053714;28;20118;-69
2022/06/13 07:25:16;;;;;;;10.77;2.53;;;20.70;60.70;;;;;;5037463;28;20025;-69
2022/06/13 07:27:42;;;;;;;10.63;1.90;;;20.70;60.50;;;;;;5051596;28;20025;-69
2022/06/13 07:30:08;;;;;;;12.65;2.65;;;20.70;60.60;;;;;;5034880;28;20068;-69
2022/06/13 07:32:33;;;;;;;7.90;2.30;;;20.70;60.30;;;;;;5034716;28;20108;-69
2022/06/13 07:35:01;;;;;;;11.27;2.83;;;20.70;60.30;;;;;;5034899;28;20109;-69
2022/06/13 07:40:11;;;;;;;8.10;2.15;;;20.70;59.90;;;;;;5034107;28;20036;-69
2022/06/13 07:42:43;;;;;;;10.15;2.38;;;20.60;60.00;;;;;;5035227;28;20100;-69
2022/06/13 07:45:12;;;;;;;9.50;2.30;;;20.60;59.70;;;;;;5038729;28;20735;-69
2022/06/13 07:47:37;;;;;;;12.77;2.53;;;20.60;59.90;;;;;;5036933;28;20362;-69
2022/06/13 07:50:03;;;;;;;9.10;2.25;;;20.60;59.90;;;;;;5054774;28;20490;-69
2022/06/13 07:52:31;;;;;;;7.72;2.20;;;20.60;59.90;;;;;;5053287;28;20443;-69
2022/06/13 07:54:56;;;;;;;8.00;2.28;;;20.60;59.90;;;;;;5054868;28;20486;-69
2022/06/13 07:57:22;;;;;;;9.95;2.38;;;20.60;59.90;;;;;;5054479;28;20025;-69
2022/06/13 07:59:48;;;;;;;7.43;2.05;;;20.60;59.90;;;;;;5054240;28;20035;-69
2022/06/13 08:02:15;;;;;;;9.32;2.33;;;20.60;59.90;;;;;;5036551;28;20039;-69
2022/06/13 08:04:41;;;;;;;10.45;2.78;;;20.60;59.90;;;;;;5053430;28;20091;-69
2022/06/13 08:07:09;;;;;;;9.63;2.50;;;20.60;59.90;;;;;;5052699;28;20028;-69
2022/06/13 08:09:35;;;;;;;8.48;2.33;;;20.60;59.80;;;;;;5054237;28;20021;-69
2022/06/13 08:12:01;;;;;;;8.43;2.00;;;20.70;59.80;;;;;;5042489;28;20026;-68
2022/06/13 08:14:26;;;;;;;7.65;2.50;;;20.60;60.00;;;;;;5033027;28;20059;-69
2022/06/13 08:16:53;;;;;;;11.40;2.65;;;20.60;59.90;;;;;;5034121;28;20021;-69
2022/06/13 08:19:18;;;;;;;7.95;2.35;;;20.60;60.00;;;;;;5039220;28;20047;-69
2022/06/13 08:21:44;;;;;;;7.65;2.00;;;20.60;60.10;;;;;;5053995;28;20411;-69
2022/06/13 08:24:09;;;;;;;7.32;1.80;;;20.70;60.10;;;;;;5054131;28;20454;-69
2022/06/13 08:26:35;;;;;;;6.07;1.75;;;20.70;60.20;;;;;;5053802;28;20531;-69
2022/06/13 08:29:01;;;;;;;8.55;2.25;;;20.60;60.00;;;;;;5053859;28;20033;-69
2022/06/13 08:31:26;;;;;;;7.75;2.80;;;20.70;59.30;;;;;;5053650;28;20411;-69
2022/06/13 08:33:52;;;;;;;9.70;2.25;;;20.60;59.40;;;;;;5052576;28;20387;-69
2022/06/13 08:36:19;;;;;;;6.60;2.08;;;20.60;59.30;;;;;;5053574;28;20021;-69
2022/06/13 08:38:45;;;;;;;8.13;2.35;;;20.60;59.40;;;;;;5053698;28;20028;-69
2022/06/13 08:41:11;;;;;;;8.75;2.33;;;20.60;59.40;;;;;;5053742;28;20021;-69
2022/06/13 08:43:57;;;;;;;6.22;1.85;;;20.60;59.50;;;;;;5053298;28;20025;-68
2022/06/13 08:46:34;;;;;;;6.18;2.25;;;20.60;59.30;;;;;;5053435;28;20043;-69
2022/06/13 08:49:16;;;;;;;9.48;2.60;;;20.50;59.20;;;;;;5053302;28;20024;-69
2022/06/13 08:51:47;;;;;;;6.82;1.80;;;20.60;59.30;;;;;;5036255;28;20045;-69
2022/06/13 08:54:18;;;;;;;7.43;1.98;;;20.50;59.10;;;;;;5052321;28;20013;-69
2022/06/13 08:56:44;;;;;;;11.57;1.77;;;20.60;59.40;;;;;;5036144;28;20166;-70
2022/06/13 08:59:24;;;;;;;6.20;2.03;;;20.60;60.90;;;;;;5035547;28;20104;-69
2022/06/13 09:02:23;;;;;;;7.30;1.98;;;20.60;59.90;;;;;;5052210;28;20028;-69
2022/06/13 09:04:53;;;;;;;6.72;1.73;;;20.60;60.00;;;;;;5048005;28;20507;-69
2022/06/13 09:07:21;;;;;;;6.95;1.70;;;20.70;60.30;;;;;;5053229;28;20024;-69
2022/06/13 09:10:14;;;;;;;7.22;1.73;;;20.60;60.40;;;;;;5052962;28;20487;-69
2022/06/13 09:13:00;;;;;;;4.68;1.55;;;20.70;60.50;;;;;;5036636;28;20026;-69
2022/06/13 09:15:32;;;;;;;5.20;1.75;;;20.70;60.40;;;;;;5031796;28;20037;-69
2022/06/13 09:18:05;;;;;;;3.60;1.80;;;20.70;60.30;;;;;;5031680;28;20041;-69
2022/06/13 09:20:38;;;;;;;3.30;1.55;;;20.70;60.50;;;;;;5047402;28;20062;-69
2022/06/13 09:23:12;;;;;;;4.53;1.63;;;20.70;60.50;;;;;;5052575;28;20078;-69
2022/06/13 09:25:43;;;;;;;4.65;1.55;;;20.70;60.30;;;;;;5052164;28;20151;-69
2022/06/13 09:28:21;;;;;;;5.50;1.58;;;20.70;60.20;;;;;;5051562;28;20515;-69
2022/06/13 09:30:59;;;;;;;6.22;1.52;;;20.60;59.30;;;;;;5051705;28;20021;-69
2022/06/13 09:33:34;;;;;;;5.40;1.60;;;20.60;59.20;;;;;;5035751;28;20028;-69
2022/06/13 09:36:22;;;;;;;5.90;1.60;;;20.60;59.30;;;;;;5035258;28;20017;-69
2022/06/13 09:39:12;;;;;;;4.03;1.58;;;20.60;59.40;;;;;;5036029;28;20051;-69
2022/06/13 09:41:48;;;;;;;4.80;1.50;;;20.60;59.40;;;;;;5051443;28;20033;-69
2022/06/13 09:44:26;;;;;;;8.25;1.70;;;20.60;59.50;;;;;;5051078;28;20048;-68
2022/06/13 09:46:59;;;;;;;7.60;1.80;;;20.60;59.10;;;;;;5052187;28;20048;-69
2022/06/13 09:49:46;;;;;;;2.53;1.48;;;20.60;59.30;;;;;;5051318;28;20021;-69
2022/06/13 09:52:50;;;;;;;4.13;1.25;;;20.70;59.50;;;;;;5052457;28;20479;-69
2022/06/13 09:55:21;;;;;;;6.43;1.50;;;20.60;59.00;;;;;;5050697;28;20029;-69
2022/06/13 09:57:48;;;;;;;2.57;1.20;;;20.60;59.30;;;;;;5034929;28;20033;-69
2022/06/13 10:00:22;;;;;;;4.05;1.48;;;20.60;59.30;;;;;;5052399;28;20032;-69
2022/06/13 10:02:58;;;;;;;11.05;2.00;;;20.60;58.90;;;;;;5034981;28;20088;-69
2022/06/13 10:05:43;;;;;;;5.55;1.38;;;20.60;58.70;;;;;;5051262;28;20040;-69
2022/06/13 10:08:30;;;;;;;5.75;1.60;;;20.60;59.20;;;;;;5052215;28;20025;-69
2022/06/13 10:10:56;;;;;;;5.72;1.60;;;20.60;58.80;;;;;;5048867;28;20013;-69
2022/06/13 10:13:40;;;;;;;4.78;1.33;;;20.60;58.90;;;;;;5032185;28;20464;-68
2022/06/13 10:16:24;;;;;;;3.42;1.55;;;20.60;58.90;;;;;;5032161;28;20102;-69
2022/06/13 10:18:59;;;;;;;4.75;1.13;;;20.70;59.10;;;;;;5032632;28;20022;-68
2022/06/13 10:21:45;;;;;;;5.10;1.42;;;20.60;59.10;;;;;;5052324;28;20505;-68
2022/06/13 10:24:32;;;;;;;5.47;1.42;;;20.60;58.90;;;;;;5052052;28;20043;-69
2022/06/13 10:27:21;;;;;;;4.72;1.40;;;20.60;57.90;;;;;;5052034;28;20106;-69
2022/06/13 10:30:07;;;;;;;6.32;1.38;;;20.60;57.90;;;;;;5051354;28;20037;-69
2022/06/13 10:32:52;;;;;;;2.22;1.08;;;20.60;58.10;;;;;;5050894;28;20017;-69
2022/06/13 10:35:43;;;;;;;4.25;1.52;;;20.60;58.20;;;;;;5053300;28;20017;-69
2022/06/13 10:38:27;;;;;;;6.13;1.15;;;20.60;58.40;;;;;;5051976;28;20033;-69
2022/06/13 10:40:52;;;;;;;4.38;1.33;;;20.60;58.40;;;;;;5054878;28;20025;-69
2022/06/13 10:43:18;;;;;;;4.85;1.55;;;20.60;58.50;;;;;;5054930;28;20540;-69
2022/06/13 10:45:44;;;;;;;4.78;1.13;;;20.60;58.70;;;;;;5054317;28;20102;-69
2022/06/13 10:48:36;;;;;;;2.75;1.13;;;20.60;59.10;;;;;;5054706;28;20400;-69
2022/06/13 10:51:03;;;;;;;6.32;1.45;;;20.70;59.50;;;;;;5052239;28;20048;-69
2022/06/13 10:53:51;;;;;;;6.80;1.85;;;20.70;59.10;;;;;;5037957;28;20025;-69
2022/06/13 10:56:22;;;;;;;4.32;1.30;;;20.70;59.40;;;;;;5054538;28;20017;-69
2022/06/13 10:58:53;;;;;;;2.65;1.00;;;20.70;59.20;;;;;;5026629;28;20064;-68
2022/06/13 11:01:28;;;;;;;2.60;1.40;;;20.70;59.20;;;;;;5054034;28;20479;-69
2022/06/13 11:03:57;;;;;;;4.15;1.40;;;20.70;59.40;;;;;;5033379;28;20029;-69
2022/06/13 11:06:24;;;;;;;2.80;1.30;;;20.70;59.50;;;;;;5044103;28;20444;-69
2022/06/13 11:09:00;;;;;;;2.05;1.00;;;20.70;59.70;;;;;;5018055;28;20017;-69
2022/06/13 11:11:36;;;;;;;2.15;1.00;;;20.70;59.30;;;;;;5034219;28;20017;-69
2022/06/13 11:14:02;;;;;;;4.30;1.20;;;20.70;59.30;;;;;;5034022;28;20013;-70
2022/06/13 11:22:38;;;;;;;3.33;1.15;;;20.70;59.70;;;;;;5037170;28;20144;-69
2022/06/13 11:25:30;;;;;;;2.38;1.02;;;20.70;59.40;;;;;;5032836;28;20032;-70
2022/06/13 11:28:18;;;;;;;1.98;1.05;;;20.70;59.20;;;;;;5033165;28;20037;-70
2022/06/13 11:30:44;;;;;;;4.20;1.00;;;20.70;58.60;;;;;;5033941;28;20119;-69
2022/06/13 11:33:09;;;;;;;3.17;1.23;;;20.70;58.90;;;;;;5034980;28;20032;-69
2022/06/13 11:35:56;;;;;;;3.53;1.30;;;20.70;58.70;;;;;;5034752;28;20045;-69
2022/06/13 11:38:27;;;;;;;3.20;1.17;;;20.70;59.30;;;;;;5034935;28;20022;-69
2022/06/13 11:40:56;;;;;;;2.90;1.10;;;20.70;59.80;;;;;;5033616;28;20030;-69
2022/06/13 11:43:30;;;;;;;4.28;1.23;;;20.70;59.80;;;;;;5034732;28;20033;-69
2022/06/13 11:46:00;;;;;;;4.72;1.13;;;20.70;59.00;;;;;;5033084;28;20408;-70
2022/06/13 11:48:26;;;;;;;3.42;1.00;;;20.80;59.20;;;;;;5032141;28;20025;-69
2022/06/13 11:51:00;;;;;;;3.88;1.33;;;20.70;59.00;;;;;;5033479;28;20365;-69
2022/06/13 11:53:38;;;;;;;3.22;1.33;;;20.70;59.00;;;;;;5033595;28;20024;-69
2022/06/13 11:56:19;;;;;;;4.20;1.25;;;20.70;59.20;;;;;;5033627;28;20026;-69
2022/06/13 11:58:46;;;;;;;3.80;1.02;;;20.70;59.20;;;;;;5033194;28;20022;-69
2022/06/13 12:01:17;;;;;;;3.33;1.25;;;20.80;59.10;;;;;;5033342;28;20499;-69
2022/06/13 12:04:00;;;;;;;3.95;1.30;;;20.70;59.70;;;;;;5033168;28;20025;-69
2022/06/13 12:06:25;;;;;;;;;;;20.70;58.50;;;;;;5034914;28;20021;-69
2022/06/13 12:09:03;;;;;;;4.18;1.00;;;20.70;58.60;;;;;;5034294;28;19951;-70
2022/06/13 12:11:29;;;;;;;4.65;1.10;;;20.70;58.40;;;;;;5032955;28;20029;-69
2022/06/13 12:13:58;;;;;;;2.65;1.00;;;20.70;58.80;;;;;;5033142;28;20437;-69
2022/06/13 12:16:48;;;;;;;4.28;1.17;;;20.80;59.20;;;;;;5033367;28;20025;-69
2022/06/13 12:19:25;;;;;;;3.47;1.02;;;20.80;59.60;;;;;;5037646;28;20479;-70
2022/06/13 12:22:02;;;;;;;3.33;1.00;;;20.80;59.60;;;;;;5054069;28;20573;-69
2022/06/13 12:24:58;;;;;;;2.80;1.10;;;20.80;59.70;;;;;;5052942;28;20035;-69
2022/06/13 12:27:30;;;;;;;3.30;0.93;;;20.80;59.40;;;;;;5052629;28;20107;-69
2022/06/13 12:30:23;;;;;;;3.10;0.90;;;20.80;59.60;;;;;;5053903;28;20021;-69
2022/06/13 12:33:16;;;;;;;3.55;1.15;;;20.80;59.50;;;;;;5053839;28;20032;-69
2022/06/13 12:35:47;;;;;;;3.72;0.90;;;20.80;59.20;;;;;;5052429;28;20032;-69
2022/06/13 12:38:33;;;;;;;2.60;1.03;;;20.80;59.40;;;;;;5053768;28;20046;-69
2022/06/13 12:41:14;;;;;;;2.97;0.85;;;20.80;59.10;;;;;;5051433;28;20090;-69
2022/06/13 12:43:48;;;;;;;3.42;1.10;;;20.80;59.70;;;;;;5051247;28;20047;-69
2022/06/13 12:46:59;;;;;;;2.92;0.98;;;20.90;59.90;;;;;;5051469;28;20074;-69
2022/06/13 12:49:33;;;;;;;3.75;1.00;;;20.90;59.60;;;;;;4953339;29;20114;-69
2022/06/13 12:52:24;;;;;;;1.63;0.85;;;20.80;59.60;;;;;;4937468;29;20039;-69
2022/06/13 12:54:52;;;;;;;3.22;0.80;;;20.90;59.50;;;;;;4895848;29;20089;-69
2022/06/13 12:57:55;;;;;;;1.60;0.82;;;20.90;59.50;;;;;;4880826;29;20081;-69
2022/06/13 13:00:25;;;;;;;1.80;0.77;;;20.90;59.60;;;;;;4896247;29;20079;-69
2022/06/13 13:03:14;;;;;;;2.20;1.00;;;20.90;59.50;;;;;;4880929;29;20067;-69
2022/06/13 13:05:49;;;;;;;2.05;0.90;;;20.90;59.40;;;;;;4895777;29;20053;-69
2022/06/13 13:08:33;;;;;;;2.50;0.90;;;20.90;59.60;;;;;;4895938;29;20044;-69
2022/06/13 13:10:58;;;;;;;1.30;0.60;;;20.90;59.50;;;;;;4895704;29;20044;-69
2022/06/13 13:13:33;;;;;;;3.53;1.30;;;21.00;59.60;;;;;;4895899;29;20051;-69
2022/06/13 13:16:10;;;;;;;1.17;0.60;;;20.90;59.70;;;;;;4880874;29;20078;-69
2022/06/13 13:19:12;;;;;;;2.08;1.05;;;21.00;59.60;;;;;;4881429;29;20178;-69
2022/06/13 13:22:00;;;;;;;3.90;1.40;;;21.00;59.70;;;;;;4991366;28;20081;-69
2022/06/13 13:24:28;;;;;;;2.83;1.02;;;21.00;59.00;;;;;;4991315;28;20041;-69
2022/06/13 13:27:03;;;;;;;2.70;1.00;;;21.00;59.10;;;;;;4991259;28;20031;-69
2022/06/13 13:29:34;;;;;;;2.65;1.00;;;21.00;59.10;;;;;;4991336;28;20022;-69
2022/06/13 13:32:24;;;;;;;3.58;0.90;;;21.00;59.30;;;;;;5015369;28;20056;-69
2022/06/13 13:35:31;;;;;;;1.73;0.80;;;21.00;59.50;;;;;;5032600;28;20017;-69